Skip to main content.
Our real time weather data display below is updated continuously via our 24/7 live data feed.
 TIME   TEMPERATURE   WINDSPEED   DIRECTION   HUMIDITY   BAROMETER   RAINFALL 
7:06 24.2°C (75.6°F) 5.6 kmh (3.5 mph) NE 67% 1015.2hPa (29.98 inHg) 0.3mm (0.01 in.)
6:06 25.3°C (77.5 °F) 9.3 kmh (5.8 mph) NNE 67% 1014.9hPa (29.97 inHg) 0.3mm (0.01 in.)
5:06 25.2°C (77.4 °F) 3.7 kmh (2.3 mph) NE 55% 1015.5hPa (29.99 inHg) 0.3mm (0.01 in.)
4:06 27.6°C (81.7 °F) 3.7 kmh (2.3 mph) NE 55% 1015.2hPa (29.98 inHg) 0.3mm (0.01 in.)
3:06 26.7°C (80.1 °F) 9.3 kmh (5.8 mph) SSW 62% 1015.5hPa (29.99 inHg) 0.3mm (0.01 in.)
2:06 27.3°C (81.1 °F) 0.0 kmh (0.0 mph) SW 58% 1015.7hPa (29.99 inHg) 0.3mm (0.01 in.)
1:06 26.6°C (79.9 °F) 5.6 kmh (3.5 mph) SW 54% 1015.7hPa (29.99 inHg) 0.3mm (0.01 in.)
12:06 25.3°C (77.5 °F) 7.4 kmh (4.6 mph) NNE 56% 1015.9hPa (30.00 inHg) 0.3mm (0.01 in.)
11:06 25.1°C (77.2 °F) 5.6 kmh (3.5 mph) ENE 55% 1015.8hPa (30.00 inHg) 0.3mm (0.01 in.)
10:06 24.3°C (75.7 °F) 7.4 kmh (4.6 mph) ENE 58% 1015.3hPa (29.98 inHg) 0.3mm (0.01 in.)
9:06 22.7°C (72.9 °F) 5.6 kmh (3.5 mph) NE 87% 1015.2hPa (29.98 inHg) 0.3mm (0.01 in.)
8:06 21.0°C (69.8 °F) 3.7 kmh (2.3 mph) N 93% 1014.6hPa (29.96 inHg) 0.3mm (0.01 in.)
7:06 19.9°C (67.8 °F) 0.0 kmh (0.0 mph) N 100% 1014.4hPa (29.96 inHg) 0.3mm (0.01 in.)
6:06 19.1°C (66.4 °F) 0.0 kmh (0.0 mph) N 100% 1014.2hPa (29.95 inHg) 0.3mm (0.01 in.)
5:06 19.3°C (66.7 °F) 1.9 kmh (1.2 mph) N 100% 1014.0hPa (29.94 inHg) 0.3mm (0.01 in.)
4:06 19.1°C (66.4 °F) 0.0 kmh (0.0 mph) N 100% 1013.9hPa (29.94 inHg) 0.0mm (0.00 in.)
3:06 19.3°C (66.7 °F) 0.0 kmh (0.0 mph) N 99% 1014.1hPa (29.95 inHg) 0.0mm (0.00 in.)
2:06 19.6°C (67.3 °F) 0.0 kmh (0.0 mph) N 98% 1014.0hPa (29.94 inHg) 0.0mm (0.00 in.)
1:06 19.7°C (67.5 °F) 0.0 kmh (0.0 mph) NE 98% 1014.0hPa (29.94 inHg) 0.0mm (0.00 in.)
12:06 19.9°C (67.8 °F) 0.0 kmh (0.0 mph) NE 98% 1014.0hPa (29.94 inHg) 0.0mm (0.00 in.)
11:06 19.9°C (67.8 °F) 7.4 kmh (4.6 mph) NE 97% 1014.0hPa (29.94 inHg) 0.0mm (0.00 in.)
10:06 19.9°C (67.8 °F) 7.4 kmh (4.6 mph) NNE 96% 1013.8hPa (29.94 inHg) 0.0mm (0.00 in.)
9:06 20.2°C (68.4 °F) 9.3 kmh (5.8 mph) NNE 93% 1013.3hPa (29.92 inHg) 0.0mm (0.00 in.)
8:06 21.0°C (69.8 °F) 3.7 kmh (2.3 mph) NW 77% 1012.6hPa (29.90 inHg) 0.0mm (0.00 in.)